createdAt,value
2019-01-21T00:00:34.227Z,-1.60
2019-01-21T00:03:03.020Z,-1.57
2019-01-21T00:05:31.657Z,-1.52
2019-01-21T00:08:00.154Z,-1.51
2019-01-21T00:10:28.624Z,-1.55
2019-01-21T00:12:57.123Z,-1.51
2019-01-21T00:15:25.762Z,-1.53
2019-01-21T00:17:54.266Z,-1.52
2019-01-21T00:20:22.744Z,-1.48
2019-01-21T00:22:51.237Z,-1.45
2019-01-21T00:25:19.710Z,-1.61
2019-01-21T00:27:48.278Z,-1.61
2019-01-21T00:30:16.821Z,-1.51
2019-01-21T00:32:45.315Z,-1.44
2019-01-21T00:35:13.796Z,-1.55
2019-01-21T00:37:42.280Z,-1.67
2019-01-21T00:40:13.570Z,-1.60
2019-01-21T00:42:42.065Z,-1.50
2019-01-21T00:45:10.806Z,-1.62
2019-01-21T00:47:39.276Z,-1.54
2019-01-21T00:50:10.377Z,-1.58
2019-01-21T00:52:38.921Z,-1.61
2019-01-21T00:55:09.554Z,-1.68
2019-01-21T00:57:38.013Z,-1.74
2019-01-21T01:00:18.656Z,-1.73
2019-01-21T01:02:47.318Z,-1.65
2019-01-21T01:05:18.209Z,-1.58
2019-01-21T01:07:47.007Z,-1.60
2019-01-21T01:10:15.676Z,-1.57
2019-01-21T01:12:44.153Z,-1.56
2019-01-21T01:15:14.375Z,-1.67
2019-01-21T01:17:43.272Z,-1.60
2019-01-21T01:20:17.049Z,-1.51
2019-01-21T01:22:45.796Z,-1.47
2019-01-21T01:25:14.368Z,-1.48
2019-01-21T01:27:43.084Z,-1.46
2019-01-21T01:30:14.510Z,-1.57
2019-01-21T01:32:44.629Z,-1.53
2019-01-21T01:35:15.365Z,-1.61
2019-01-21T01:37:44.382Z,-1.56
2019-01-21T01:40:15.385Z,-1.70
2019-01-21T01:42:43.933Z,-1.66
2019-01-21T01:45:15.471Z,-1.76
2019-01-21T01:47:44.930Z,-1.64
2019-01-21T01:50:13.661Z,-1.75
2019-01-21T01:52:42.193Z,-1.81
2019-01-21T01:55:11.229Z,-1.85
2019-01-21T01:57:39.769Z,-1.70
2019-01-21T02:00:11.561Z,-1.81
2019-01-21T02:02:40.032Z,-1.85
2019-01-21T02:05:08.867Z,-1.85
2019-01-21T02:07:37.337Z,-1.80
2019-01-21T02:10:08.759Z,-1.76
2019-01-21T02:12:37.239Z,-1.82
2019-01-21T02:15:12.197Z,-1.83
2019-01-21T02:17:40.730Z,-1.83
2019-01-21T02:20:14.973Z,-1.83
2019-01-21T02:22:45.826Z,-1.76
2019-01-21T02:25:14.870Z,-1.72
2019-01-21T02:27:55.206Z,-1.88
2019-01-21T02:30:32.397Z,-1.87
2019-01-21T02:33:21.791Z,-1.88
2019-01-21T02:35:53.343Z,-1.88
2019-01-21T02:38:36.824Z,-1.94
2019-01-21T02:41:08.733Z,-1.85
2019-01-21T02:43:58.764Z,-1.93
2019-01-21T02:46:39.296Z,-1.91
2019-01-21T02:49:27.564Z,-2.08
2019-01-21T02:52:04.657Z,-2.03
2019-01-21T02:55:07.399Z,-2.09
2019-01-21T02:57:53.521Z,-2.08
2019-01-21T03:00:31.125Z,-2.08
2019-01-21T03:03:14.623Z,-2.06
2019-01-21T03:06:06.731Z,-2.14
2019-01-21T03:08:44.253Z,-2.16
2019-01-21T03:11:18.662Z,-2.17
2019-01-21T03:13:50.201Z,-2.12
2019-01-21T03:16:30.829Z,-2.17
2019-01-21T03:19:11.358Z,-2.16
2019-01-21T03:22:08.546Z,-2.04
2019-01-21T03:24:49.140Z,-2.15
2019-01-21T03:27:38.812Z,-2.22
2019-01-21T03:30:26.798Z,-2.22
2019-01-21T03:33:21.018Z,-2.31
2019-01-21T03:36:04.384Z,-2.30
2019-01-21T03:38:39.122Z,-2.42
2019-01-21T03:41:16.501Z,-2.36
2019-01-21T03:43:48.019Z,-2.34
2019-01-21T03:46:34.748Z,-2.31
2019-01-21T03:49:09.526Z,-2.37
2019-01-21T03:51:53.300Z,-2.42
2019-01-21T03:54:23.524Z,-2.43
2019-01-21T03:56:55.067Z,-2.36
2019-01-21T03:59:32.604Z,-2.37
2019-01-21T04:02:06.952Z,-2.39
2019-01-21T04:04:53.717Z,-2.34
2019-01-21T04:07:28.112Z,-2.41
2019-01-21T04:10:34.607Z,-2.37
2019-01-21T04:13:09.084Z,-2.35
2019-01-21T04:15:55.485Z,-2.33
2019-01-21T04:18:35.879Z,-2.36
2019-01-21T04:21:16.410Z,-2.33
2019-01-21T04:23:50.363Z,-2.33
2019-01-21T04:26:24.379Z,-2.39
2019-01-21T04:29:04.413Z,-2.33
2019-01-21T04:31:47.777Z,-2.29
2019-01-21T04:34:28.034Z,-2.32
2019-01-21T04:37:16.138Z,-2.35
2019-01-21T04:39:55.933Z,-2.31
2019-01-21T04:42:39.503Z,-2.30
2019-01-21T04:45:16.787Z,-2.36
2019-01-21T04:47:54.375Z,-2.33
2019-01-21T04:50:25.927Z,-2.32
2019-01-21T04:53:00.009Z,-2.33
2019-01-21T04:55:46.679Z,-2.30
2019-01-21T04:58:20.873Z,-2.45
2019-01-21T05:01:15.119Z,-2.40
2019-01-21T05:04:09.403Z,-2.39
2019-01-21T05:06:58.638Z,-2.39
2019-01-21T05:09:51.288Z,-2.35
2019-01-21T05:12:28.480Z,-2.41
2019-01-21T05:15:16.572Z,-2.37
2019-01-21T05:18:09.229Z,-2.44
2019-01-21T05:20:56.936Z,-2.30
2019-01-21T05:23:43.233Z,-2.39
2019-01-21T05:26:20.243Z,-2.49
2019-01-21T05:29:19.131Z,-2.50
2019-01-21T05:32:02.821Z,-2.37
2019-01-21T05:34:57.334Z,-2.24
2019-01-21T05:37:28.876Z,-2.29
2019-01-21T05:40:16.943Z,-2.39
2019-01-21T05:43:00.111Z,-2.31
2019-01-21T05:45:43.459Z,-2.31
2019-01-21T05:48:31.643Z,-2.28
2019-01-21T05:51:19.524Z,-2.36
2019-01-21T05:53:53.614Z,-2.30
2019-01-21T05:56:34.172Z,-2.20
2019-01-21T05:59:26.901Z,-2.27
2019-01-21T06:02:16.445Z,-2.20
2019-01-21T06:05:04.241Z,-2.32
2019-01-21T06:07:44.392Z,-2.34
2019-01-21T06:10:18.521Z,-2.32
2019-01-21T06:13:09.552Z,-2.27
2019-01-21T06:15:41.066Z,-2.27
2019-01-21T06:18:15.467Z,-2.33
2019-01-21T06:20:49.978Z,-2.33
2019-01-21T06:23:36.351Z,-2.32
2019-01-21T06:26:13.809Z,-2.28
2019-01-21T06:29:16.971Z,-2.27
2019-01-21T06:31:54.407Z,-2.27
2019-01-21T06:34:40.898Z,-2.21
2019-01-21T06:37:18.608Z,-2.24
2019-01-21T06:40:06.799Z,-2.19
2019-01-21T06:42:53.207Z,-2.42
2019-01-21T06:45:36.064Z,-2.27
2019-01-21T06:48:13.859Z,-2.28
2019-01-21T06:51:11.012Z,-2.31
2019-01-21T06:54:03.425Z,-2.26
2019-01-21T06:56:47.313Z,-2.21
2019-01-21T06:59:30.631Z,-2.21
2019-01-21T07:02:05.064Z,-2.17
2019-01-21T07:05:13.162Z,-2.16
2019-01-21T07:08:15.888Z,-2.15
2019-01-21T07:10:53.580Z,-2.21
2019-01-21T07:13:59.949Z,-2.17
2019-01-21T07:16:46.456Z,-2.29
2019-01-21T07:19:39.112Z,-2.22
2019-01-21T07:22:10.627Z,-2.21
2019-01-21T07:24:47.870Z,-2.24
2019-01-21T07:27:25.299Z,-2.22
2019-01-21T07:30:13.304Z,-2.17
2019-01-21T07:32:47.456Z,-2.28
2019-01-21T07:35:24.747Z,-2.31
2019-01-21T07:38:04.594Z,-2.17
2019-01-21T07:40:47.989Z,-2.18
2019-01-21T07:43:22.159Z,-2.31
2019-01-21T07:46:02.266Z,-2.15
2019-01-21T07:49:08.901Z,-2.28
2019-01-21T07:52:09.458Z,-2.28
2019-01-21T07:54:55.889Z,-2.42
2019-01-21T07:57:27.431Z,-2.33
2019-01-21T08:00:10.763Z,-2.35
2019-01-21T08:02:42.309Z,-2.30
2019-01-21T08:05:42.540Z,-2.31
2019-01-21T08:08:20.068Z,-2.22
2019-01-21T08:10:51.595Z,-2.27
2019-01-21T08:13:39.525Z,-2.42
2019-01-21T08:16:33.711Z,-2.34
2019-01-21T08:19:24.302Z,-2.35
2019-01-21T08:22:05.519Z,-2.30
2019-01-21T08:24:48.867Z,-2.22
2019-01-21T08:27:35.199Z,-2.30
2019-01-21T08:30:06.723Z,-2.31
2019-01-21T08:32:38.261Z,-2.19
2019-01-21T08:35:15.788Z,-2.18
2019-01-21T08:38:03.789Z,-2.13
2019-01-21T08:40:51.961Z,-2.22
2019-01-21T08:43:41.303Z,-2.18
2019-01-21T08:46:32.188Z,-2.16
2019-01-21T08:49:15.641Z,-2.25
2019-01-21T08:51:47.159Z,-2.17
2019-01-21T08:54:30.806Z,-2.12
2019-01-21T08:57:05.461Z,-2.11
2019-01-21T08:59:46.223Z,-2.26
2019-01-21T09:02:26.649Z,-2.33
2019-01-21T09:05:06.723Z,-2.32
2019-01-21T09:07:49.829Z,-2.27
2019-01-21T09:10:23.828Z,-2.17
2019-01-21T09:12:58.435Z,-2.13
2019-01-21T09:15:32.927Z,-2.22
2019-01-21T09:18:10.132Z,-2.17
2019-01-21T09:20:44.507Z,-2.14
2019-01-21T09:23:37.493Z,-2.13
2019-01-21T09:26:44.147Z,-2.00
2019-01-21T09:29:24.423Z,-1.99
2019-01-21T09:32:14.411Z,-2.05
2019-01-21T09:34:51.439Z,-2.07
2019-01-21T09:37:31.924Z,-2.02
2019-01-21T09:40:21.530Z,-1.94
2019-01-21T09:43:09.672Z,-2.04
2019-01-21T09:45:47.095Z,-2.11
2019-01-21T09:48:14.420Z,-1.96
2019-01-21T09:50:45.047Z,-2.05
2019-01-21T09:53:13.889Z,-2.01
2019-01-21T09:55:45.567Z,-2.06
2019-01-21T09:58:14.047Z,-1.93
2019-01-21T10:00:42.694Z,-1.97
2019-01-21T10:03:12.921Z,-1.97
2019-01-21T10:05:44.797Z,-1.89
2019-01-21T10:08:19.097Z,-2.05
2019-01-21T10:11:07.259Z,-2.01
2019-01-21T10:13:44.860Z,-1.87
2019-01-21T10:16:31.491Z,-1.80
2019-01-21T10:19:14.787Z,-1.85
2019-01-21T10:22:05.895Z,-1.86
2019-01-21T10:24:37.410Z,-1.83
2019-01-21T10:27:55.402Z,-1.72
2019-01-21T10:30:41.936Z,-1.84
2019-01-21T10:33:46.274Z,-1.71
2019-01-21T10:36:26.517Z,-1.65
2019-01-21T10:38:58.059Z,-1.61
2019-01-21T10:41:41.724Z,-1.59
2019-01-21T10:44:13.275Z,-1.56
2019-01-21T10:46:50.405Z,-1.61
2019-01-21T10:49:30.725Z,-1.60
2019-01-21T10:52:31.060Z,-1.65
2019-01-21T10:55:26.697Z,-1.63
2019-01-21T10:58:04.131Z,-1.58
2019-01-21T11:00:50.305Z,-1.61
2019-01-21T11:03:28.058Z,-1.57
2019-01-21T11:06:02.112Z,-1.71
2019-01-21T11:08:42.687Z,-1.69
2019-01-21T11:11:28.769Z,-1.77
2019-01-21T11:14:05.880Z,-1.66
2019-01-21T11:16:46.444Z,-1.64
2019-01-21T11:19:34.591Z,-1.59
2019-01-21T11:22:06.697Z,-1.56
2019-01-21T11:25:00.410Z,-1.51
2019-01-21T11:27:31.935Z,-1.47
2019-01-21T11:30:21.846Z,-1.34
2019-01-21T11:33:09.672Z,-1.35
2019-01-21T11:36:09.994Z,-1.39
2019-01-21T11:38:47.286Z,-1.45
2019-01-21T11:41:30.208Z,-1.38
2019-01-21T11:44:13.012Z,-1.29
2019-01-21T11:47:02.306Z,-1.35
2019-01-21T11:49:45.854Z,-1.22
2019-01-21T11:52:23.662Z,-1.32
2019-01-21T11:55:23.932Z,-1.21
2019-01-21T11:58:07.430Z,-1.22
2019-01-21T12:00:58.775Z,-1.33
2019-01-21T12:03:33.115Z,-1.26
2019-01-21T12:06:02.649Z,-1.06
2019-01-21T12:08:46.132Z,-1.10
2019-01-21T12:11:34.234Z,-1.08
2019-01-21T12:14:05.759Z,-0.94
2019-01-21T12:16:55.225Z,-0.98
2019-01-21T12:19:41.831Z,-1.01
2019-01-21T12:22:25.439Z,-0.91
2019-01-21T12:24:56.952Z,-1.15
2019-01-21T12:27:28.495Z,-0.99
2019-01-21T12:30:08.846Z,-1.00
2019-01-21T12:33:02.987Z,-1.02
2019-01-21T12:35:46.186Z,-1.16
2019-01-21T12:38:29.543Z,-1.07
2019-01-21T12:41:12.941Z,-0.95
2019-01-21T12:43:56.244Z,-1.03
2019-01-21T12:46:42.953Z,-1.15
2019-01-21T12:49:17.095Z,-1.25
2019-01-21T12:51:51.150Z,-1.16
2019-01-21T12:54:22.663Z,-1.01
2019-01-21T12:57:09.345Z,-1.04
2019-01-21T12:59:44.740Z,-1.02
2019-01-21T13:02:16.103Z,-1.07
2019-01-21T13:04:50.194Z,-1.09
2019-01-21T13:07:45.621Z,-1.12
2019-01-21T13:10:22.778Z,-1.09
2019-01-21T13:12:54.336Z,-1.13
2019-01-21T13:15:40.967Z,-1.08
2019-01-21T13:18:21.057Z,-1.13
2019-01-21T13:20:55.550Z,-1.21
2019-01-21T13:23:27.102Z,-1.22
2019-01-21T13:25:58.608Z,-1.15
2019-01-21T13:28:38.909Z,-1.19
2019-01-21T13:31:29.395Z,-1.12
2019-01-21T13:34:17.446Z,-1.16
2019-01-21T13:36:54.493Z,-1.19
2019-01-21T13:39:49.391Z,-1.11
2019-01-21T13:42:21.314Z,-1.15
2019-01-21T13:45:18.318Z,-1.10
2019-01-21T13:47:59.167Z,-1.14
2019-01-21T13:50:37.255Z,-1.23
2019-01-21T13:53:33.249Z,-1.20
2019-01-21T13:56:25.407Z,-1.22
2019-01-21T13:59:11.361Z,-1.24
2019-01-21T14:01:42.884Z,-1.17
2019-01-21T14:04:26.470Z,-1.15
2019-01-21T14:07:22.392Z,-1.18
2019-01-21T14:10:13.778Z,-1.17
2019-01-21T14:12:48.196Z,-1.17
2019-01-21T14:15:44.397Z,-1.16
2019-01-21T14:18:25.030Z,-1.29
2019-01-21T14:21:11.590Z,-1.19
2019-01-21T14:23:58.276Z,-1.15
2019-01-21T14:26:38.977Z,-1.18
2019-01-21T14:29:13.197Z,-1.23
2019-01-21T14:32:08.599Z,-1.18
2019-01-21T14:34:40.153Z,-1.15
2019-01-21T14:37:23.845Z,-1.13
2019-01-21T14:39:58.219Z,-1.14
2019-01-21T14:42:44.865Z,-1.14
2019-01-21T14:45:22.456Z,-1.16
2019-01-21T14:47:56.505Z,-1.20
2019-01-21T14:50:58.804Z,-1.14
2019-01-21T14:53:48.310Z,-1.17
2019-01-21T14:56:28.441Z,-1.19
2019-01-21T14:59:21.095Z,-1.19
2019-01-21T15:02:08.917Z,-1.14
2019-01-21T15:05:04.073Z,-1.14
2019-01-21T15:07:35.621Z,-1.28
2019-01-21T15:10:29.855Z,-1.30
2019-01-21T15:13:07.171Z,-1.18
2019-01-21T15:15:44.607Z,-1.20
2019-01-21T15:18:19.337Z,-1.18
2019-01-21T15:20:57.748Z,-1.18
2019-01-21T15:23:56.600Z,-1.14
2019-01-21T15:26:33.825Z,-1.25
2019-01-21T15:29:22.784Z,-1.33
2019-01-21T15:31:54.444Z,-1.36
2019-01-21T15:34:42.989Z,-1.35
2019-01-21T15:37:49.898Z,-1.32
2019-01-21T15:40:39.449Z,-1.37
2019-01-21T15:43:11.103Z,-1.30
2019-01-21T15:45:49.897Z,-1.39
2019-01-21T15:48:18.634Z,-1.36
2019-01-21T15:50:56.147Z,-1.48
2019-01-21T15:53:42.655Z,-1.38
2019-01-21T15:56:20.126Z,-1.35
2019-01-21T15:59:06.591Z,-1.35
2019-01-21T16:01:47.041Z,-1.43
2019-01-21T16:04:24.372Z,-1.48
2019-01-21T16:07:11.036Z,-1.41
2019-01-21T16:10:00.668Z,-1.44
2019-01-21T16:12:52.386Z,-1.51
2019-01-21T16:15:39.913Z,-1.48
2019-01-21T16:18:17.027Z,-1.53
2019-01-21T16:20:54.184Z,-1.60
2019-01-21T16:23:52.534Z,-1.60
2019-01-21T16:26:21.943Z,-1.59
2019-01-21T16:28:59.128Z,-1.65
2019-01-21T16:31:29.925Z,-1.61
2019-01-21T16:34:07.588Z,-1.62
2019-01-21T16:36:54.331Z,-1.57
2019-01-21T16:39:34.782Z,-1.57
2019-01-21T16:42:14.529Z,-1.57
2019-01-21T16:44:45.786Z,-1.71
2019-01-21T16:47:14.496Z,-1.69
2019-01-21T16:49:42.993Z,-1.75
2019-01-21T16:52:11.455Z,-1.72
2019-01-21T16:54:39.937Z,-1.71
2019-01-21T16:57:08.410Z,-1.75
2019-01-21T16:59:36.946Z,-1.67
2019-01-21T17:02:05.456Z,-1.76
2019-01-21T17:04:34.085Z,-1.74
2019-01-21T17:07:02.737Z,-1.74
2019-01-21T17:09:31.228Z,-1.77
2019-01-21T17:11:59.713Z,-1.77
2019-01-21T17:14:28.268Z,-1.76
2019-01-21T17:16:56.733Z,-1.70
2019-01-21T17:19:25.229Z,-1.72
2019-01-21T17:21:53.703Z,-1.80
2019-01-21T17:24:22.199Z,-1.80
2019-01-21T17:26:50.737Z,-1.83
2019-01-21T17:29:20.749Z,-1.78
2019-01-21T17:31:49.226Z,-1.83
2019-01-21T17:34:17.681Z,-1.90
2019-01-21T17:36:46.175Z,-1.95
2019-01-21T17:39:14.644Z,-1.95
2019-01-21T17:41:43.206Z,-1.88
2019-01-21T17:44:11.669Z,-1.95
2019-01-21T17:46:40.167Z,-1.91
2019-01-21T17:49:08.632Z,-1.96
2019-01-21T17:51:37.143Z,-2.03
2019-01-21T17:54:05.792Z,-2.07
2019-01-21T17:56:34.282Z,-2.08
2019-01-21T17:59:02.783Z,-2.05
2019-01-21T18:01:31.241Z,-2.09
2019-01-21T18:03:59.782Z,-2.07
2019-01-21T18:06:28.285Z,-2.06
2019-01-21T18:08:56.758Z,-2.20
2019-01-21T18:11:25.248Z,-2.24
2019-01-21T18:13:53.720Z,-2.27
2019-01-21T18:16:22.223Z,-2.26
2019-01-21T18:18:50.686Z,-2.30
2019-01-21T18:21:20.753Z,-2.31
2019-01-21T18:23:49.228Z,-2.42
2019-01-21T18:26:17.721Z,-2.40
2019-01-21T18:28:46.192Z,-2.40
2019-01-21T18:31:14.682Z,-2.45
2019-01-21T18:33:43.163Z,-2.46
2019-01-21T18:36:11.664Z,-2.41
2019-01-21T18:38:40.195Z,-2.38
2019-01-21T18:41:09.432Z,-2.45
2019-01-21T18:43:37.968Z,-2.36
2019-01-21T18:46:06.624Z,-2.38
2019-01-21T18:48:35.263Z,-2.47
2019-01-21T18:51:10.787Z,-2.41
2019-01-21T18:53:39.840Z,-2.48
2019-01-21T18:56:09.395Z,-2.44
2019-01-21T18:58:40.293Z,-2.37
2019-01-21T19:01:09.623Z,-2.39
2019-01-21T19:03:40.403Z,-2.35
2019-01-21T19:06:09.837Z,-2.36
2019-01-21T19:08:38.901Z,-2.34
2019-01-21T19:11:07.934Z,-2.40
2019-01-21T19:13:36.518Z,-2.32
2019-01-21T19:16:05.288Z,-2.32
2019-01-21T19:18:33.754Z,-2.42
2019-01-21T19:21:02.252Z,-2.35
2019-01-21T19:23:30.715Z,-2.53
2019-01-21T19:26:01.500Z,-2.50
2019-01-21T19:28:29.958Z,-2.49
2019-01-21T19:30:58.464Z,-2.53
2019-01-21T19:33:26.933Z,-2.45
2019-01-21T19:35:55.392Z,-2.49
2019-01-21T19:38:24.082Z,-2.66
2019-01-21T19:40:52.371Z,-2.62
2019-01-21T19:43:20.925Z,-2.54
2019-01-21T19:45:49.409Z,-2.59
2019-01-21T19:48:18.100Z,-2.55
2019-01-21T19:50:46.580Z,-2.50
2019-01-21T19:53:15.085Z,-2.44
2019-01-21T19:55:45.196Z,-2.44
2019-01-21T19:58:13.836Z,-2.45
2019-01-21T20:00:42.575Z,-2.48
2019-01-21T20:03:11.068Z,-2.43
2019-01-21T20:05:39.542Z,-2.45
2019-01-21T20:08:08.041Z,-2.43
2019-01-21T20:10:36.579Z,-2.40
2019-01-21T20:13:05.248Z,-2.42
2019-01-21T20:15:33.728Z,-2.39
2019-01-21T20:18:02.240Z,-2.42
2019-01-21T20:20:36.265Z,-2.36
2019-01-21T20:23:05.587Z,-2.37
2019-01-21T20:25:34.046Z,-2.40
2019-01-21T20:28:02.539Z,-2.34
2019-01-21T20:30:31.011Z,-2.37
2019-01-21T20:32:59.512Z,-2.34
2019-01-21T20:35:27.972Z,-2.41
2019-01-21T20:37:56.478Z,-2.35
2019-01-21T20:40:27.557Z,-2.35
2019-01-21T20:42:56.115Z,-2.33
2019-01-21T20:45:26.200Z,-2.34
2019-01-21T20:47:54.691Z,-2.32
2019-01-21T20:50:31.443Z,-2.38
2019-01-21T20:52:59.935Z,-2.39
2019-01-21T20:55:28.550Z,-2.35
2019-01-21T20:57:57.039Z,-2.34
2019-01-21T21:00:30.641Z,-2.32
2019-01-21T21:02:59.387Z,-2.38
2019-01-21T21:05:27.963Z,-2.39
2019-01-21T21:07:56.516Z,-2.42
2019-01-21T21:10:25.150Z,-2.38
2019-01-21T21:12:53.634Z,-2.39
2019-01-21T21:15:24.982Z,-2.39
2019-01-21T21:17:53.494Z,-2.33
2019-01-21T21:20:21.963Z,-2.37
2019-01-21T21:22:50.467Z,-2.39
2019-01-21T21:25:19.862Z,-2.41
2019-01-21T21:27:48.622Z,-2.43
2019-01-21T21:30:20.134Z,-2.36
2019-01-21T21:32:48.623Z,-2.37
2019-01-21T21:35:17.107Z,-2.34
2019-01-21T21:37:45.609Z,-2.36
2019-01-21T21:40:16.760Z,-2.40
2019-01-21T21:42:45.431Z,-2.44
2019-01-21T21:45:16.036Z,-2.43
2019-01-21T21:47:44.561Z,-2.43
2019-01-21T21:50:25.086Z,-2.44
2019-01-21T21:52:53.583Z,-2.51
2019-01-21T21:55:22.045Z,-2.50
2019-01-21T21:57:50.550Z,-2.55
2019-01-21T22:00:23.350Z,-2.56
2019-01-21T22:02:51.916Z,-2.56
2019-01-21T22:05:20.953Z,-2.62
2019-01-21T22:07:49.440Z,-2.68
2019-01-21T22:10:23.505Z,-2.57
2019-01-21T22:12:52.275Z,-2.62
2019-01-21T22:15:22.590Z,-2.64
2019-01-21T22:17:51.252Z,-2.60
2019-01-21T22:20:24.442Z,-2.65
2019-01-21T22:22:53.297Z,-2.71
2019-01-21T22:25:21.767Z,-2.68
2019-01-21T22:27:50.233Z,-2.71
2019-01-21T22:30:21.160Z,-2.79
2019-01-21T22:32:49.641Z,-2.82
2019-01-21T22:35:18.136Z,-2.88
2019-01-21T22:37:46.988Z,-2.85
2019-01-21T22:40:22.149Z,-2.96
2019-01-21T22:42:50.983Z,-2.94
2019-01-21T22:45:20.481Z,-2.91
2019-01-21T22:47:49.231Z,-2.91
2019-01-21T22:50:19.705Z,-2.96
2019-01-21T22:52:48.199Z,-2.97
2019-01-21T22:55:17.424Z,-3.07
2019-01-21T22:57:45.960Z,-3.04
2019-01-21T23:00:20.372Z,-2.97
2019-01-21T23:02:48.859Z,-2.99
2019-01-21T23:05:17.725Z,-3.07
2019-01-21T23:07:46.208Z,-3.02
2019-01-21T23:10:14.775Z,-3.11
2019-01-21T23:12:43.245Z,-3.14
2019-01-21T23:15:12.300Z,-3.09
2019-01-21T23:17:42.350Z,-3.09
2019-01-21T23:20:11.588Z,-3.18
2019-01-21T23:22:40.070Z,-3.09
2019-01-21T23:25:09.095Z,-3.15
2019-01-21T23:27:37.847Z,-3.08
2019-01-21T23:30:12.471Z,-3.09
2019-01-21T23:32:40.928Z,-3.13
2019-01-21T23:35:09.431Z,-3.20
2019-01-21T23:37:37.917Z,-3.27
2019-01-21T23:40:09.817Z,-3.25
2019-01-21T23:42:38.293Z,-3.19
2019-01-21T23:45:11.793Z,-3.24
2019-01-21T23:47:40.277Z,-3.24
2019-01-21T23:50:11.610Z,-3.26
2019-01-21T23:52:40.460Z,-3.21
2019-01-21T23:55:10.918Z,-3.16
2019-01-21T23:57:39.383Z,-3.25
